Check out our new PWSWeather beta!
PWSweather.com
Personal Weather Stations
Station Observations
KMDSOLOM1
solomons, Solomons, MD 20688

solomonsSolomons, MD 20688

Lat: 38.32, Lon: -76.45

Elevation: 5

Station Type:

http://www.act-us.info/weather

High Low Average
Temperature 52.2°F11.2°C 38.0°F3.3°C 44.9°F7.2°C
Dew Point 34.5°F1.4°C 21.8°F-5.7°C 26.6°F-3.0°C
Winds 26.0 mph 41.8 kmh Calm Calm 10.0 mph SW16.1 kmh SW
Wind Gusts 31.0 mph49.9 kmh -- 17.0 mph27.4 kmh
Humidity 73% 32% 50%
Pressure 30.19 in1022.4 mb 29.77 in1008.1 mb -
Precipitation 0.00 in0.0 mm - -
Hour Temp Dew Point Humidity Winds Wind Gusts Pressure Precip Precip Rate Daily Precip Total
12:00 AM 42.3°F5.7°C 30.6°F-0.8°C 63% 15.0 mph SSW24.1 kmh SSW 29.0 mph46.7 kmh 29.78 in1008.5 mb 0.00 in0.0 mm 0.00 in0.0 mm 0.00 in0.0 mm
12:05 AM 42.2°F5.7°C 30.5°F-0.8°C 63% 23.0 mph SW37.0 kmh SW 29.0 mph46.7 kmh 29.79 in1008.8 mb 0.00 in0.0 mm 0.00 in0.0 mm 0.00 in0.0 mm
12:10 AM 42.0°F5.6°C 30.7°F-0.7°C 64% 19.0 mph SW30.6 kmh SW 19.0 mph30.6 kmh 29.78 in1008.5 mb 0.00 in0.0 mm 0.00 in0.0 mm 0.00 in0.0 mm
12:15 AM 42.0°F5.6°C 30.3°F-0.9°C 63% 13.0 mph SSW20.9 kmh SSW 26.0 mph41.8 kmh 29.77 in1008.1 mb 0.00 in0.0 mm 0.00 in0.0 mm 0.00 in0.0 mm
12:20 AM 41.9°F5.5°C 30.2°F-1.0°C 63% 14.0 mph SW22.5 kmh SW 28.0 mph45.1 kmh 29.77 in1008.1 mb 0.00 in0.0 mm 0.00 in0.0 mm 0.00 in0.0 mm
12:25 AM 41.8°F5.4°C 30.5°F-0.8°C 64% 21.0 mph SSW33.8 kmh SSW 25.0 mph40.2 kmh 29.78 in1008.5 mb 0.00 in0.0 mm 0.00 in0.0 mm 0.00 in0.0 mm
12:30 AM 41.7°F5.4°C 29.7°F-1.3°C 62% 24.0 mph SSW38.6 kmh SSW 27.0 mph43.5 kmh 29.77 in1008.1 mb 0.00 in0.0 mm 0.00 in0.0 mm 0.00 in0.0 mm
12:35 AM 41.7°F5.4°C 30.4°F-0.9°C 64% 24.0 mph SSW38.6 kmh SSW 27.0 mph43.5 kmh 29.77 in1008.1 mb 0.00 in0.0 mm 0.00 in0.0 mm 0.00 in0.0 mm
12:40 AM 41.7°F5.4°C 29.7°F-1.3°C 62% 20.0 mph SSW32.2 kmh SSW 24.0 mph38.6 kmh 29.77 in1008.1 mb 0.00 in0.0 mm 0.00 in0.0 mm 0.00 in0.0 mm
12:45 AM 41.8°F5.4°C 29.4°F-1.4°C 61% 15.0 mph SSW24.1 kmh SSW 29.0 mph46.7 kmh 29.77 in1008.1 mb 0.00 in0.0 mm 0.00 in0.0 mm 0.00 in0.0 mm
12:50 AM 41.8°F5.4°C 29.8°F-1.2°C 62% 12.0 mph SSW19.3 kmh SSW 29.0 mph46.7 kmh 29.78 in1008.5 mb 0.00 in0.0 mm 0.00 in0.0 mm 0.00 in0.0 mm
12:55 AM 41.8°F5.4°C 29.8°F-1.2°C 62% 10.0 mph SSW16.1 kmh SSW 18.0 mph29.0 kmh 29.78 in1008.5 mb 0.00 in0.0 mm 0.00 in0.0 mm 0.00 in0.0 mm
01:00 AM 41.7°F5.4°C 30.1°F-1.1°C 63% 8.0 mph SSW12.9 kmh SSW 24.0 mph38.6 kmh 29.78 in1008.5 mb 0.00 in0.0 mm 0.00 in0.0 mm 0.00 in0.0 mm
01:05 AM 41.6°F5.3°C 29.6°F-1.3°C 62% 14.0 mph SSW22.5 kmh SSW 30.0 mph48.3 kmh 29.79 in1008.8 mb 0.00 in0.0 mm 0.00 in0.0 mm 0.00 in0.0 mm
01:10 AM 41.6°F5.3°C 30.0°F-1.1°C 63% 9.0 mph SSW14.5 kmh SSW 17.0 mph27.4 kmh 29.79 in1008.8 mb 0.00 in0.0 mm 0.00 in0.0 mm 0.00 in0.0 mm
01:15 AM 41.5°F5.3°C 29.9°F-1.2°C 63% 21.0 mph SW33.8 kmh SW 26.0 mph41.8 kmh 29.79 in1008.8 mb 0.00 in0.0 mm 0.00 in0.0 mm 0.00 in0.0 mm
01:20 AM 41.5°F5.3°C 29.5°F-1.4°C 62% 12.0 mph SSW19.3 kmh SSW 26.0 mph41.8 kmh 29.80 in1009.1 mb 0.00 in0.0 mm 0.00 in0.0 mm 0.00 in0.0 mm
01:25 AM 41.4°F5.2°C 29.4°F-1.4°C 62% 12.0 mph SSW19.3 kmh SSW 21.0 mph33.8 kmh 29.80 in1009.1 mb 0.00 in0.0 mm 0.00 in0.0 mm 0.00 in0.0 mm
01:30 AM 41.3°F5.2°C 29.7°F-1.3°C 63% 9.0 mph SW14.5 kmh SW 27.0 mph43.5 kmh 29.80 in1009.1 mb 0.00 in0.0 mm 0.00 in0.0 mm 0.00 in0.0 mm
01:35 AM 41.2°F5.1°C 30.0°F-1.1°C 64% 19.0 mph SW30.6 kmh SW 27.0 mph43.5 kmh 29.80 in1009.1 mb 0.00 in0.0 mm 0.00 in0.0 mm 0.00 in0.0 mm
01:40 AM 41.1°F5.1°C 29.9°F-1.2°C 64% 16.0 mph SW25.7 kmh SW 16.0 mph25.7 kmh 29.80 in1009.1 mb 0.00 in0.0 mm 0.00 in0.0 mm 0.00 in0.0 mm
01:45 AM 41.0°F5.0°C 29.8°F-1.2°C 64% 15.0 mph SSW24.1 kmh SSW 24.0 mph38.6 kmh 29.80 in1009.1 mb 0.00 in0.0 mm 0.00 in0.0 mm 0.00 in0.0 mm
01:50 AM 41.0°F5.0°C 29.8°F-1.2°C 64% 11.0 mph SSW17.7 kmh SSW 29.0 mph46.7 kmh 29.80 in1009.1 mb 0.00 in0.0 mm 0.00 in0.0 mm 0.00 in0.0 mm
01:55 AM 40.8°F4.9°C 29.2°F-1.6°C 63% 16.0 mph SSW25.7 kmh SSW 27.0 mph43.5 kmh 29.80 in1009.1 mb 0.00 in0.0 mm 0.00 in0.0 mm 0.00 in0.0 mm
02:00 AM 40.9°F4.9°C 29.7°F-1.3°C 64% 14.0 mph SW22.5 kmh SW 30.0 mph48.3 kmh 29.80 in1009.1 mb 0.00 in0.0 mm 0.00 in0.0 mm 0.00 in0.0 mm
02:05 AM 40.8°F4.9°C 29.6°F-1.3°C 64% 19.0 mph S30.6 kmh S 31.0 mph49.9 kmh 29.81 in1009.5 mb 0.00 in0.0 mm 0.00 in0.0 mm 0.00 in0.0 mm
02:10 AM 40.7°F4.8°C 29.9°F-1.2°C 65% 11.0 mph SW17.7 kmh SW 13.0 mph20.9 kmh 29.81 in1009.5 mb 0.00 in0.0 mm 0.00 in0.0 mm 0.00 in0.0 mm
02:15 AM 40.5°F4.7°C 29.7°F-1.3°C 65% 13.0 mph SSW20.9 kmh SSW 21.0 mph33.8 kmh 29.81 in1009.5 mb 0.00 in0.0 mm 0.00 in0.0 mm 0.00 in0.0 mm
02:20 AM 40.4°F4.7°C 29.6°F-1.3°C 65% 13.0 mph S20.9 kmh S 21.0 mph33.8 kmh 29.81 in1009.5 mb 0.00 in0.0 mm 0.00 in0.0 mm 0.00 in0.0 mm
02:25 AM 40.3°F4.6°C 29.1°F-1.6°C 64% 15.0 mph SW24.1 kmh SW 19.0 mph30.6 kmh 29.82 in1009.8 mb 0.00 in0.0 mm 0.00 in0.0 mm 0.00 in0.0 mm
02:30 AM 40.2°F4.6°C 29.0°F-1.7°C 64% 10.0 mph SW16.1 kmh SW 22.0 mph35.4 kmh 29.82 in1009.8 mb 0.00 in0.0 mm 0.00 in0.0 mm 0.00 in0.0 mm
02:35 AM 40.2°F4.6°C 29.0°F-1.7°C 64% 18.0 mph SSW29.0 kmh SSW 24.0 mph38.6 kmh 29.81 in1009.5 mb 0.00 in0.0 mm 0.00 in0.0 mm 0.00 in0.0 mm
02:40 AM 40.2°F4.6°C 28.6°F-1.9°C 63% 22.0 mph S35.4 kmh S 22.0 mph35.4 kmh 29.82 in1009.8 mb 0.00 in0.0 mm 0.00 in0.0 mm 0.00 in0.0 mm
02:45 AM 40.1°F4.5°C 28.5°F-1.9°C 63% 9.0 mph SW14.5 kmh SW 23.0 mph37.0 kmh 29.82 in1009.8 mb 0.00 in0.0 mm 0.00 in0.0 mm 0.00 in0.0 mm
02:50 AM 40.1°F4.5°C 28.9°F-1.7°C 64% 11.0 mph SW17.7 kmh SW 23.0 mph37.0 kmh 29.82 in1009.8 mb 0.00 in0.0 mm 0.00 in0.0 mm 0.00 in0.0 mm
02:55 AM 40.0°F4.4°C 28.8°F-1.8°C 64% 12.0 mph SW19.3 kmh SW 14.0 mph22.5 kmh 29.82 in1009.8 mb 0.00 in0.0 mm 0.00 in0.0 mm 0.00 in0.0 mm
03:00 AM 39.9°F4.4°C 28.7°F-1.8°C 64% 17.0 mph SW27.4 kmh SW 20.0 mph32.2 kmh 29.83 in1010.2 mb 0.00 in0.0 mm 0.00 in0.0 mm 0.00 in0.0 mm
03:05 AM 39.9°F4.4°C 28.7°F-1.8°C 64% 7.0 mph SSW11.3 kmh SSW 21.0 mph33.8 kmh 29.82 in1009.8 mb 0.00 in0.0 mm 0.00 in0.0 mm 0.00 in0.0 mm
03:10 AM 39.8°F4.3°C 28.6°F-1.9°C 64% 7.0 mph SSW11.3 kmh SSW 26.0 mph41.8 kmh 29.83 in1010.2 mb 0.00 in0.0 mm 0.00 in0.0 mm 0.00 in0.0 mm
03:15 AM 39.8°F4.3°C 28.3°F-2.1°C 63% 14.0 mph SSW22.5 kmh SSW 26.0 mph41.8 kmh 29.83 in1010.2 mb 0.00 in0.0 mm 0.00 in0.0 mm 0.00 in0.0 mm
03:20 AM 39.7°F4.3°C 27.4°F-2.6°C 61% 16.0 mph S25.7 kmh S 26.0 mph41.8 kmh 29.83 in1010.2 mb 0.00 in0.0 mm 0.00 in0.0 mm 0.00 in0.0 mm
03:25 AM 39.7°F4.3°C 27.8°F-2.3°C 62% 17.0 mph SSW27.4 kmh SSW 21.0 mph33.8 kmh 29.83 in1010.2 mb 0.00 in0.0 mm 0.00 in0.0 mm 0.00 in0.0 mm
03:30 AM 39.6°F4.2°C 27.3°F-2.6°C 61% 11.0 mph SSW17.7 kmh SSW 24.0 mph38.6 kmh 29.82 in1009.8 mb 0.00 in0.0 mm 0.00 in0.0 mm 0.00 in0.0 mm
03:35 AM 39.6°F4.2°C 27.3°F-2.6°C 61% 18.0 mph SW29.0 kmh SW 27.0 mph43.5 kmh 29.82 in1009.8 mb 0.00 in0.0 mm 0.00 in0.0 mm 0.00 in0.0 mm
03:40 AM 39.6°F4.2°C 27.3°F-2.6°C 61% 12.0 mph SSW19.3 kmh SSW 22.0 mph35.4 kmh 29.83 in1010.2 mb 0.00 in0.0 mm 0.00 in0.0 mm 0.00 in0.0 mm
03:45 AM 39.6°F4.2°C 27.3°F-2.6°C 61% 9.0 mph SW14.5 kmh SW 23.0 mph37.0 kmh 29.83 in1010.2 mb 0.00 in0.0 mm 0.00 in0.0 mm 0.00 in0.0 mm
03:50 AM 39.5°F4.2°C 27.6°F-2.4°C 62% 11.0 mph SW17.7 kmh SW 23.0 mph37.0 kmh 29.84 in1010.5 mb 0.00 in0.0 mm 0.00 in0.0 mm 0.00 in0.0 mm
03:55 AM 39.5°F4.2°C 27.2°F-2.7°C 61% 17.0 mph SW27.4 kmh SW 23.0 mph37.0 kmh 29.84 in1010.5 mb 0.00 in0.0 mm 0.00 in0.0 mm 0.00 in0.0 mm
04:00 AM 39.5°F4.2°C 27.6°F-2.4°C 62% 26.0 mph SW41.8 kmh SW 27.0 mph43.5 kmh 29.84 in1010.5 mb 0.00 in0.0 mm 0.00 in0.0 mm 0.00 in0.0 mm
04:05 AM 39.6°F4.2°C 28.1°F-2.2°C 63% 9.0 mph SW14.5 kmh SW 27.0 mph43.5 kmh 29.84 in1010.5 mb 0.00 in0.0 mm 0.00 in0.0 mm 0.00 in0.0 mm
04:10 AM 39.5°F4.2°C 27.2°F-2.7°C 61% 11.0 mph SSW17.7 kmh SSW 26.0 mph41.8 kmh 29.84 in1010.5 mb 0.00 in0.0 mm 0.00 in0.0 mm 0.00 in0.0 mm
04:15 AM 39.4°F4.1°C 27.5°F-2.5°C 62% 14.0 mph SW22.5 kmh SW 26.0 mph41.8 kmh 29.85 in1010.8 mb 0.00 in0.0 mm 0.00 in0.0 mm 0.00 in0.0 mm
04:20 AM 39.3°F4.1°C 28.2°F-2.1°C 64% 13.0 mph SW20.9 kmh SW 26.0 mph41.8 kmh 29.85 in1010.8 mb 0.00 in0.0 mm 0.00 in0.0 mm 0.00 in0.0 mm
04:25 AM 39.3°F4.1°C 27.4°F-2.6°C 62% 9.0 mph SSW14.5 kmh SSW 18.0 mph29.0 kmh 29.86 in1011.2 mb 0.00 in0.0 mm 0.00 in0.0 mm 0.00 in0.0 mm
04:30 AM 39.3°F4.1°C 27.8°F-2.3°C 63% 10.0 mph SW16.1 kmh SW 21.0 mph33.8 kmh 29.86 in1011.2 mb 0.00 in0.0 mm 0.00 in0.0 mm 0.00 in0.0 mm
04:35 AM 39.2°F4.0°C 27.7°F-2.4°C 63% 11.0 mph SW17.7 kmh SW 23.0 mph37.0 kmh 29.86 in1011.2 mb 0.00 in0.0 mm 0.00 in0.0 mm 0.00 in0.0 mm
04:40 AM 39.1°F3.9°C 27.6°F-2.4°C 63% 24.0 mph SW38.6 kmh SW 27.0 mph43.5 kmh 29.85 in1010.8 mb 0.00 in0.0 mm 0.00 in0.0 mm 0.00 in0.0 mm
04:45 AM 39.1°F3.9°C 27.2°F-2.7°C 62% 14.0 mph SW22.5 kmh SW 28.0 mph45.1 kmh 29.85 in1010.8 mb 0.00 in0.0 mm 0.00 in0.0 mm 0.00 in0.0 mm
04:50 AM 39.1°F3.9°C 28.0°F-2.2°C 64% 8.0 mph SW12.9 kmh SW 28.0 mph45.1 kmh 29.87 in1011.5 mb 0.00 in0.0 mm 0.00 in0.0 mm 0.00 in0.0 mm
04:55 AM 39.1°F3.9°C 28.0°F-2.2°C 64% 7.0 mph SSW11.3 kmh SSW 11.0 mph17.7 kmh 29.87 in1011.5 mb 0.00 in0.0 mm 0.00 in0.0 mm 0.00 in0.0 mm
05:00 AM 39.0°F3.9°C 27.9°F-2.3°C 64% 13.0 mph SW20.9 kmh SW 21.0 mph33.8 kmh 29.88 in1011.9 mb 0.00 in0.0 mm 0.00 in0.0 mm 0.00 in0.0 mm
05:05 AM 38.8°F3.8°C 27.3°F-2.6°C 63% 10.0 mph SW16.1 kmh SW 24.0 mph38.6 kmh 29.88 in1011.9 mb 0.00 in0.0 mm 0.00 in0.0 mm 0.00 in0.0 mm
05:10 AM 38.8°F3.8°C 27.7°F-2.4°C 64% 9.0 mph SW14.5 kmh SW 10.0 mph16.1 kmh 29.89 in1012.2 mb 0.00 in0.0 mm 0.00 in0.0 mm 0.00 in0.0 mm
05:15 AM 38.6°F3.7°C 26.7°F-2.9°C 62% 17.0 mph SW27.4 kmh SW 26.0 mph41.8 kmh 29.88 in1011.9 mb 0.00 in0.0 mm 0.00 in0.0 mm 0.00 in0.0 mm
05:20 AM 38.7°F3.7°C 27.2°F-2.7°C 63% 12.0 mph SW19.3 kmh SW 26.0 mph41.8 kmh 29.88 in1011.9 mb 0.00 in0.0 mm 0.00 in0.0 mm 0.00 in0.0 mm
05:25 AM 38.7°F3.7°C 27.6°F-2.4°C 64% 12.0 mph SW19.3 kmh SW 16.0 mph25.7 kmh 29.89 in1012.2 mb 0.00 in0.0 mm 0.00 in0.0 mm 0.00 in0.0 mm
05:30 AM 38.6°F3.7°C 27.9°F-2.3°C 65% 13.0 mph SW20.9 kmh SW 19.0 mph30.6 kmh 29.90 in1012.5 mb 0.00 in0.0 mm 0.00 in0.0 mm 0.00 in0.0 mm
05:35 AM 38.5°F3.6°C 27.4°F-2.6°C 64% 19.0 mph SW30.6 kmh SW 21.0 mph33.8 kmh 29.90 in1012.5 mb 0.00 in0.0 mm 0.00 in0.0 mm 0.00 in0.0 mm
05:40 AM 38.5°F3.6°C 27.4°F-2.6°C 64% 8.0 mph SW12.9 kmh SW 13.0 mph20.9 kmh 29.91 in1012.9 mb 0.00 in0.0 mm 0.00 in0.0 mm 0.00 in0.0 mm
05:45 AM 38.4°F3.6°C 27.3°F-2.6°C 64% 9.0 mph SW14.5 kmh SW 22.0 mph35.4 kmh 29.91 in1012.9 mb 0.00 in0.0 mm 0.00 in0.0 mm 0.00 in0.0 mm
05:50 AM 38.4°F3.6°C 26.5°F-3.1°C 62% 11.0 mph SW17.7 kmh SW 22.0 mph35.4 kmh 29.91 in1012.9 mb 0.00 in0.0 mm 0.00 in0.0 mm 0.00 in0.0 mm
05:55 AM 38.3°F3.5°C 27.2°F-2.7°C 64% 15.0 mph SSW24.1 kmh SSW 25.0 mph40.2 kmh 29.92 in1013.2 mb 0.00 in0.0 mm 0.00 in0.0 mm 0.00 in0.0 mm
06:00 AM 38.2°F3.4°C 27.1°F-2.7°C 64% 17.0 mph SW27.4 kmh SW 25.0 mph40.2 kmh 29.92 in1013.2 mb 0.00 in0.0 mm 0.00 in0.0 mm 0.00 in0.0 mm
06:05 AM 38.2°F3.4°C 26.7°F-2.9°C 63% 21.0 mph SSW33.8 kmh SSW 25.0 mph40.2 kmh 29.92 in1013.2 mb 0.00 in0.0 mm 0.00 in0.0 mm 0.00 in0.0 mm
06:10 AM 38.2°F3.4°C 27.1°F-2.7°C 64% 14.0 mph SSW22.5 kmh SSW 16.0 mph25.7 kmh 29.92 in1013.2 mb 0.00 in0.0 mm 0.00 in0.0 mm 0.00 in0.0 mm
06:15 AM 38.1°F3.4°C 26.6°F-3.0°C 63% 12.0 mph SSW19.3 kmh SSW 20.0 mph32.2 kmh 29.92 in1013.2 mb 0.00 in0.0 mm 0.00 in0.0 mm 0.00 in0.0 mm
06:20 AM 38.1°F3.4°C 26.6°F-3.0°C 63% 10.0 mph SW16.1 kmh SW 20.0 mph32.2 kmh 29.93 in1013.5 mb 0.00 in0.0 mm 0.00 in0.0 mm 0.00 in0.0 mm
06:25 AM 38.1°F3.4°C 27.0°F-2.8°C 64% 13.0 mph SW20.9 kmh SW 13.0 mph20.9 kmh 29.94 in1013.9 mb 0.00 in0.0 mm 0.00 in0.0 mm 0.00 in0.0 mm
06:30 AM 38.0°F3.3°C 26.2°F-3.2°C 62% 15.0 mph SSW24.1 kmh SSW 24.0 mph38.6 kmh 29.93 in1013.5 mb 0.00 in0.0 mm 0.00 in0.0 mm 0.00 in0.0 mm
06:35 AM 38.0°F3.3°C 26.5°F-3.1°C 63% 8.0 mph SW12.9 kmh SW 24.0 mph38.6 kmh 29.94 in1013.9 mb 0.00 in0.0 mm 0.00 in0.0 mm 0.00 in0.0 mm
06:40 AM 38.1°F3.4°C 27.0°F-2.8°C 64% 7.0 mph SW11.3 kmh SW 11.0 mph17.7 kmh 29.94 in1013.9 mb 0.00 in0.0 mm 0.00 in0.0 mm 0.00 in0.0 mm
06:45 AM 38.2°F3.4°C 27.1°F-2.7°C 64% 22.0 mph SW35.4 kmh SW 22.0 mph35.4 kmh 29.94 in1013.9 mb 0.00 in0.0 mm 0.00 in0.0 mm 0.00 in0.0 mm
06:50 AM 38.2°F3.4°C 27.1°F-2.7°C 64% 14.0 mph SW22.5 kmh SW 22.0 mph35.4 kmh 29.95 in1014.2 mb 0.00 in0.0 mm 0.00 in0.0 mm 0.00 in0.0 mm
06:55 AM 38.3°F3.5°C 26.8°F-2.9°C 63% 12.0 mph SW19.3 kmh SW 14.0 mph22.5 kmh 29.96 in1014.6 mb 0.00 in0.0 mm 0.00 in0.0 mm 0.00 in0.0 mm
07:00 AM 38.2°F3.4°C 26.3°F-3.2°C 62% 14.0 mph SW22.5 kmh SW 16.0 mph25.7 kmh 29.96 in1014.6 mb 0.00 in0.0 mm 0.00 in0.0 mm 0.00 in0.0 mm
07:05 AM 38.4°F3.6°C 27.3°F-2.6°C 64% 11.0 mph SW17.7 kmh SW 16.0 mph25.7 kmh 29.96 in1014.6 mb 0.00 in0.0 mm 0.00 in0.0 mm 0.00 in0.0 mm
07:10 AM 38.5°F3.6°C 27.0°F-2.8°C 63% 13.0 mph SW20.9 kmh SW 17.0 mph27.4 kmh 29.96 in1014.6 mb 0.00 in0.0 mm 0.00 in0.0 mm 0.00 in0.0 mm
07:15 AM 38.6°F3.7°C 26.7°F-2.9°C 62% 14.0 mph SSW22.5 kmh SSW 19.0 mph30.6 kmh 29.96 in1014.6 mb 0.00 in0.0 mm 0.00 in0.0 mm 0.00 in0.0 mm
07:20 AM 38.7°F3.7°C 27.2°F-2.7°C 63% 15.0 mph SSW24.1 kmh SSW 21.0 mph33.8 kmh 29.97 in1014.9 mb 0.00 in0.0 mm 0.00 in0.0 mm 0.00 in0.0 mm
07:25 AM 38.9°F3.8°C 27.8°F-2.3°C 64% 17.0 mph SW27.4 kmh SW 17.0 mph27.4 kmh 29.97 in1014.9 mb 0.00 in0.0 mm 0.00 in0.0 mm 0.00 in0.0 mm
07:30 AM 39.0°F3.9°C 27.5°F-2.5°C 63% 13.0 mph SSW20.9 kmh SSW 18.0 mph29.0 kmh 29.97 in1014.9 mb 0.00 in0.0 mm 0.00 in0.0 mm 0.00 in0.0 mm
07:35 AM 39.0°F3.9°C 27.1°F-2.7°C 62% 11.0 mph SW17.7 kmh SW 19.0 mph30.6 kmh 29.98 in1015.2 mb 0.00 in0.0 mm 0.00 in0.0 mm 0.00 in0.0 mm
07:40 AM 39.2°F4.0°C 27.7°F-2.4°C 63% 13.0 mph SW20.9 kmh SW 20.0 mph32.2 kmh 29.97 in1014.9 mb 0.00 in0.0 mm 0.00 in0.0 mm 0.00 in0.0 mm
07:45 AM 39.1°F3.9°C 26.8°F-2.9°C 61% 15.0 mph SSW24.1 kmh SSW 23.0 mph37.0 kmh 29.97 in1014.9 mb 0.00 in0.0 mm 0.00 in0.0 mm 0.00 in0.0 mm
07:50 AM 39.3°F4.1°C 27.4°F-2.6°C 62% 15.0 mph SSW24.1 kmh SSW 23.0 mph37.0 kmh 29.98 in1015.2 mb 0.00 in0.0 mm 0.00 in0.0 mm 0.00 in0.0 mm
07:55 AM 39.6°F4.2°C 27.3°F-2.6°C 61% 14.0 mph SSW22.5 kmh SSW 23.0 mph37.0 kmh 29.98 in1015.2 mb 0.00 in0.0 mm 0.00 in0.0 mm 0.00 in0.0 mm
08:00 AM 39.7°F4.3°C 27.0°F-2.8°C 60% 12.0 mph SSW19.3 kmh SSW 23.0 mph37.0 kmh 29.98 in1015.2 mb 0.00 in0.0 mm 0.00 in0.0 mm 0.00 in0.0 mm
08:05 AM 39.8°F4.3°C 26.2°F-3.2°C 58% 11.0 mph SW17.7 kmh SW 27.0 mph43.5 kmh 29.98 in1015.2 mb 0.00 in0.0 mm 0.00 in0.0 mm 0.00 in0.0 mm
08:10 AM 39.8°F4.3°C 26.2°F-3.2°C 58% 12.0 mph SW19.3 kmh SW 18.0 mph29.0 kmh 29.98 in1015.2 mb 0.00 in0.0 mm 0.00 in0.0 mm 0.00 in0.0 mm
08:15 AM 40.0°F4.4°C 26.4°F-3.1°C 58% 13.0 mph SW20.9 kmh SW 25.0 mph40.2 kmh 29.99 in1015.6 mb 0.00 in0.0 mm 0.00 in0.0 mm 0.00 in0.0 mm
08:20 AM 40.5°F4.7°C 27.7°F-2.4°C 60% 11.0 mph SSW17.7 kmh SSW 25.0 mph40.2 kmh 29.99 in1015.6 mb 0.00 in0.0 mm 0.00 in0.0 mm 0.00 in0.0 mm
08:25 AM 40.6°F4.8°C 26.6°F-3.0°C 57% 19.0 mph W30.6 kmh W 19.0 mph30.6 kmh 29.99 in1015.6 mb 0.00 in0.0 mm 0.00 in0.0 mm 0.00 in0.0 mm
08:30 AM 40.7°F4.8°C 26.2°F-3.2°C 56% 17.0 mph SW27.4 kmh SW 22.0 mph35.4 kmh 30.00 in1015.9 mb 0.00 in0.0 mm 0.00 in0.0 mm 0.00 in0.0 mm
08:35 AM 40.6°F4.8°C 25.3°F-3.7°C 54% 17.0 mph SSW27.4 kmh SSW 22.0 mph35.4 kmh 30.00 in1015.9 mb 0.00 in0.0 mm 0.00 in0.0 mm 0.00 in0.0 mm
08:40 AM 41.1°F5.1°C 26.2°F-3.2°C 55% 12.0 mph SSW19.3 kmh SSW 19.0 mph30.6 kmh 30.00 in1015.9 mb 0.00 in0.0 mm 0.00 in0.0 mm 0.00 in0.0 mm
08:45 AM 41.5°F5.3°C 26.1°F-3.3°C 54% 9.0 mph SSW14.5 kmh SSW 21.0 mph33.8 kmh 30.00 in1015.9 mb 0.00 in0.0 mm 0.00 in0.0 mm 0.00 in0.0 mm
08:50 AM 41.5°F5.3°C 25.7°F-3.5°C 53% 14.0 mph SSW22.5 kmh SSW 21.0 mph33.8 kmh 30.00 in1015.9 mb 0.00 in0.0 mm 0.00 in0.0 mm 0.00 in0.0 mm
08:55 AM 41.5°F5.3°C 25.2°F-3.8°C 52% 15.0 mph SW24.1 kmh SW 20.0 mph32.2 kmh 30.00 in1015.9 mb 0.00 in0.0 mm 0.00 in0.0 mm 0.00 in0.0 mm
09:00 AM 41.5°F5.3°C 26.1°F-3.3°C 54% 17.0 mph SW27.4 kmh SW 25.0 mph40.2 kmh 30.01 in1016.3 mb 0.00 in0.0 mm 0.00 in0.0 mm 0.00 in0.0 mm
09:05 AM 41.8°F5.4°C 25.9°F-3.4°C 53% 22.0 mph SW35.4 kmh SW 25.0 mph40.2 kmh 30.02 in1016.6 mb 0.00 in0.0 mm 0.00 in0.0 mm 0.00 in0.0 mm
09:10 AM 41.9°F5.5°C 25.1°F-3.8°C 51% 13.0 mph S20.9 kmh S 16.0 mph25.7 kmh 30.02 in1016.6 mb 0.00 in0.0 mm 0.00 in0.0 mm 0.00 in0.0 mm
09:15 AM 42.3°F5.7°C 26.4°F-3.1°C 53% 18.0 mph SW29.0 kmh SW 21.0 mph33.8 kmh 30.02 in1016.6 mb 0.00 in0.0 mm 0.00 in0.0 mm 0.00 in0.0 mm
09:20 AM 42.5°F5.8°C 26.1°F-3.3°C 52% 7.0 mph SW11.3 kmh SW 21.0 mph33.8 kmh 30.03 in1016.9 mb 0.00 in0.0 mm 0.00 in0.0 mm 0.00 in0.0 mm
09:25 AM 42.7°F5.9°C 25.4°F-3.7°C 50% 8.0 mph SW12.9 kmh SW 15.0 mph24.1 kmh 30.03 in1016.9 mb 0.00 in0.0 mm 0.00 in0.0 mm 0.00 in0.0 mm
09:30 AM 42.7°F5.9°C 24.9°F-3.9°C 49% 9.0 mph SSW14.5 kmh SSW 22.0 mph35.4 kmh 30.02 in1016.6 mb 0.00 in0.0 mm 0.00 in0.0 mm 0.00 in0.0 mm
09:35 AM 42.9°F6.1°C 25.6°F-3.6°C 50% 13.0 mph WSW20.9 kmh WSW 25.0 mph40.2 kmh 30.03 in1016.9 mb 0.00 in0.0 mm 0.00 in0.0 mm 0.00 in0.0 mm
09:40 AM 43.3°F6.3°C 25.9°F-3.4°C 50% 7.0 mph SW11.3 kmh SW 18.0 mph29.0 kmh 30.03 in1016.9 mb 0.00 in0.0 mm 0.00 in0.0 mm 0.00 in0.0 mm
09:45 AM 43.5°F6.4°C 25.6°F-3.6°C 49% 15.0 mph SW24.1 kmh SW 18.0 mph29.0 kmh 30.03 in1016.9 mb 0.00 in0.0 mm 0.00 in0.0 mm 0.00 in0.0 mm
09:50 AM 43.6°F6.4°C 26.2°F-3.2°C 50% 14.0 mph SSW22.5 kmh SSW 24.0 mph38.6 kmh 30.04 in1017.3 mb 0.00 in0.0 mm 0.00 in0.0 mm 0.00 in0.0 mm
09:55 AM 43.9°F6.6°C 26.5°F-3.1°C 50% 9.0 mph SW14.5 kmh SW 14.0 mph22.5 kmh 30.04 in1017.3 mb 0.00 in0.0 mm 0.00 in0.0 mm 0.00 in0.0 mm
10:00 AM 44.0°F6.7°C 25.1°F-3.8°C 47% 8.0 mph SW12.9 kmh SW 21.0 mph33.8 kmh 30.05 in1017.6 mb 0.00 in0.0 mm 0.00 in0.0 mm 0.00 in0.0 mm
10:05 AM 43.9°F6.6°C 26.0°F-3.3°C 49% 9.0 mph SW14.5 kmh SW 21.0 mph33.8 kmh 30.05 in1017.6 mb 0.00 in0.0 mm 0.00 in0.0 mm 0.00 in0.0 mm
10:10 AM 44.4°F6.9°C 26.0°F-3.3°C 48% 7.0 mph SW11.3 kmh SW 16.0 mph25.7 kmh 30.05 in1017.6 mb 0.00 in0.0 mm 0.00 in0.0 mm 0.00 in0.0 mm
10:15 AM 44.3°F6.8°C 25.4°F-3.7°C 47% 11.0 mph SW17.7 kmh SW 20.0 mph32.2 kmh 30.06 in1017.9 mb 0.00 in0.0 mm 0.00 in0.0 mm 0.00 in0.0 mm
10:20 AM 44.5°F6.9°C 25.0°F-3.9°C 46% 16.0 mph SW25.7 kmh SW 20.0 mph32.2 kmh 30.06 in1017.9 mb 0.00 in0.0 mm 0.00 in0.0 mm 0.00 in0.0 mm
10:25 AM 44.3°F6.8°C 23.8°F-4.6°C 44% 16.0 mph SW25.7 kmh SW 18.0 mph29.0 kmh 30.06 in1017.9 mb 0.00 in0.0 mm 0.00 in0.0 mm 0.00 in0.0 mm
10:30 AM 44.4°F6.9°C 24.4°F-4.2°C 45% 13.0 mph SW20.9 kmh SW 21.0 mph33.8 kmh 30.06 in1017.9 mb 0.00 in0.0 mm 0.00 in0.0 mm 0.00 in0.0 mm
10:35 AM 44.8°F7.1°C 25.3°F-3.7°C 46% 13.0 mph SW20.9 kmh SW 21.0 mph33.8 kmh 30.06 in1017.9 mb 0.00 in0.0 mm 0.00 in0.0 mm 0.00 in0.0 mm
10:40 AM 44.7°F7.1°C 25.2°F-3.8°C 46% 13.0 mph SW20.9 kmh SW 16.0 mph25.7 kmh 30.06 in1017.9 mb 0.00 in0.0 mm 0.00 in0.0 mm 0.00 in0.0 mm
10:45 AM 44.7°F7.1°C 24.7°F-4.1°C 45% 11.0 mph S17.7 kmh S 23.0 mph37.0 kmh 30.06 in1017.9 mb 0.00 in0.0 mm 0.00 in0.0 mm 0.00 in0.0 mm
10:50 AM 44.9°F7.2°C 26.4°F-3.1°C 48% 12.0 mph SW19.3 kmh SW 23.0 mph37.0 kmh 30.06 in1017.9 mb 0.00 in0.0 mm 0.00 in0.0 mm 0.00 in0.0 mm
10:55 AM 44.7°F7.1°C 24.7°F-4.1°C 45% 17.0 mph SW27.4 kmh SW 19.0 mph30.6 kmh 30.06 in1017.9 mb 0.00 in0.0 mm 0.00 in0.0 mm 0.00 in0.0 mm
11:00 AM 45.0°F7.2°C 26.0°F-3.3°C 47% 17.0 mph SW27.4 kmh SW 23.0 mph37.0 kmh 30.06 in1017.9 mb 0.00 in0.0 mm 0.00 in0.0 mm 0.00 in0.0 mm
11:05 AM 45.0°F7.2°C 26.5°F-3.1°C 48% 15.0 mph SW24.1 kmh SW 25.0 mph40.2 kmh 30.06 in1017.9 mb 0.00 in0.0 mm 0.00 in0.0 mm 0.00 in0.0 mm
11:10 AM 45.4°F7.4°C 26.4°F-3.1°C 47% 10.0 mph SSW16.1 kmh SSW 16.0 mph25.7 kmh 30.06 in1017.9 mb 0.00 in0.0 mm 0.00 in0.0 mm 0.00 in0.0 mm
11:15 AM 45.8°F7.7°C 24.6°F-4.1°C 43% 18.0 mph SW29.0 kmh SW 18.0 mph29.0 kmh 30.06 in1017.9 mb 0.00 in0.0 mm 0.00 in0.0 mm 0.00 in0.0 mm
11:20 AM 46.1°F7.8°C 25.4°F-3.7°C 44% 13.0 mph SW20.9 kmh SW 21.0 mph33.8 kmh 30.06 in1017.9 mb 0.00 in0.0 mm 0.00 in0.0 mm 0.00 in0.0 mm
11:25 AM 46.0°F7.8°C 25.3°F-3.7°C 44% 10.0 mph SW16.1 kmh SW 19.0 mph30.6 kmh 30.06 in1017.9 mb 0.00 in0.0 mm 0.00 in0.0 mm 0.00 in0.0 mm
11:30 AM 46.4°F8.0°C 26.8°F-2.9°C 46% 8.0 mph SW12.9 kmh SW 19.0 mph30.6 kmh 30.06 in1017.9 mb 0.00 in0.0 mm 0.00 in0.0 mm 0.00 in0.0 mm
11:35 AM 46.7°F8.2°C 26.0°F-3.3°C 44% 8.0 mph SW12.9 kmh SW 19.0 mph30.6 kmh 30.06 in1017.9 mb 0.00 in0.0 mm 0.00 in0.0 mm 0.00 in0.0 mm
11:40 AM 46.8°F8.2°C 24.4°F-4.2°C 41% 11.0 mph SW17.7 kmh SW 12.0 mph19.3 kmh 30.06 in1017.9 mb 0.00 in0.0 mm 0.00 in0.0 mm 0.00 in0.0 mm
11:45 AM 47.2°F8.4°C 25.3°F-3.7°C 42% 8.0 mph SW12.9 kmh SW 17.0 mph27.4 kmh 30.06 in1017.9 mb 0.00 in0.0 mm 0.00 in0.0 mm 0.00 in0.0 mm
11:50 AM 47.2°F8.4°C 24.1°F-4.4°C 40% 9.0 mph SSW14.5 kmh SSW 23.0 mph37.0 kmh 30.06 in1017.9 mb 0.00 in0.0 mm 0.00 in0.0 mm 0.00 in0.0 mm
11:55 AM 47.2°F8.4°C 22.9°F-5.1°C 38% 10.0 mph SW16.1 kmh SW 18.0 mph29.0 kmh 30.06 in1017.9 mb 0.00 in0.0 mm 0.00 in0.0 mm 0.00 in0.0 mm
12:00 PM 47.3°F8.5°C 23.0°F-5.0°C 38% 12.0 mph SW19.3 kmh SW 23.0 mph37.0 kmh 30.06 in1017.9 mb 0.00 in0.0 mm 0.00 in0.0 mm 0.00 in0.0 mm
12:05 PM 47.4°F8.6°C 24.3°F-4.3°C 40% 14.0 mph SSW22.5 kmh SSW 23.0 mph37.0 kmh 30.06 in1017.9 mb 0.00 in0.0 mm 0.00 in0.0 mm 0.00 in0.0 mm
12:10 PM 47.7°F8.7°C 24.6°F-4.1°C 40% 10.0 mph SW16.1 kmh SW 19.0 mph30.6 kmh 30.06 in1017.9 mb 0.00 in0.0 mm 0.00 in0.0 mm 0.00 in0.0 mm
12:15 PM 47.8°F8.8°C 22.8°F-5.1°C 37% 9.0 mph SSW14.5 kmh SSW 20.0 mph32.2 kmh 30.06 in1017.9 mb 0.00 in0.0 mm 0.00 in0.0 mm 0.00 in0.0 mm
12:20 PM 47.6°F8.7°C 22.0°F-5.6°C 36% 13.0 mph SW20.9 kmh SW 24.0 mph38.6 kmh 30.06 in1017.9 mb 0.00 in0.0 mm 0.00 in0.0 mm 0.00 in0.0 mm
12:25 PM 47.8°F8.8°C 22.8°F-5.1°C 37% 11.0 mph SW17.7 kmh SW 17.0 mph27.4 kmh 30.06 in1017.9 mb 0.00 in0.0 mm 0.00 in0.0 mm 0.00 in0.0 mm
12:30 PM 48.5°F9.2°C 24.1°F-4.4°C 38% 10.0 mph SW16.1 kmh SW 22.0 mph35.4 kmh 30.06 in1017.9 mb 0.00 in0.0 mm 0.00 in0.0 mm 0.00 in0.0 mm
12:35 PM 48.4°F9.1°C 22.0°F-5.6°C 35% 13.0 mph SW20.9 kmh SW 25.0 mph40.2 kmh 30.06 in1017.9 mb 0.00 in0.0 mm 0.00 in0.0 mm 0.00 in0.0 mm
12:40 PM 48.1°F8.9°C 21.8°F-5.7°C 35% 8.0 mph SW12.9 kmh SW 17.0 mph27.4 kmh 30.06 in1017.9 mb 0.00 in0.0 mm 0.00 in0.0 mm 0.00 in0.0 mm
12:45 PM 48.5°F9.2°C 22.8°F-5.1°C 36% 18.0 mph SW29.0 kmh SW 23.0 mph37.0 kmh 30.06 in1017.9 mb 0.00 in0.0 mm 0.00 in0.0 mm 0.00 in0.0 mm
12:50 PM 48.6°F9.2°C 23.5°F-4.7°C 37% 9.0 mph SSW14.5 kmh SSW 23.0 mph37.0 kmh 30.06 in1017.9 mb 0.00 in0.0 mm 0.00 in0.0 mm 0.00 in0.0 mm
12:55 PM 48.9°F9.4°C 23.8°F-4.6°C 37% 13.0 mph S20.9 kmh S 16.0 mph25.7 kmh 30.06 in1017.9 mb 0.00 in0.0 mm 0.00 in0.0 mm 0.00 in0.0 mm
01:00 PM 49.1°F9.5°C 23.3°F-4.8°C 36% 7.0 mph SSW11.3 kmh SSW 23.0 mph37.0 kmh 30.06 in1017.9 mb 0.00 in0.0 mm 0.00 in0.0 mm 0.00 in0.0 mm
01:05 PM 49.2°F9.6°C 22.7°F-5.2°C 35% 11.0 mph WSW17.7 kmh WSW 23.0 mph37.0 kmh 30.06 in1017.9 mb 0.00 in0.0 mm 0.00 in0.0 mm 0.00 in0.0 mm
01:10 PM 49.1°F9.5°C 23.3°F-4.8°C 36% 13.0 mph SW20.9 kmh SW 14.0 mph22.5 kmh 30.06 in1017.9 mb 0.00 in0.0 mm 0.00 in0.0 mm 0.00 in0.0 mm
01:15 PM 49.3°F9.6°C 24.2°F-4.3°C 37% 11.0 mph SSW17.7 kmh SSW 22.0 mph35.4 kmh 30.06 in1017.9 mb 0.00 in0.0 mm 0.00 in0.0 mm 0.00 in0.0 mm
01:20 PM 49.7°F9.8°C 25.1°F-3.8°C 38% 15.0 mph SW24.1 kmh SW 22.0 mph35.4 kmh 30.06 in1017.9 mb 0.00 in0.0 mm 0.00 in0.0 mm 0.00 in0.0 mm
01:25 PM 50.0°F10.0°C 27.8°F-2.3°C 42% 8.0 mph SW12.9 kmh SW 14.0 mph22.5 kmh 30.06 in1017.9 mb 0.00 in0.0 mm 0.00 in0.0 mm 0.00 in0.0 mm
01:30 PM 50.0°F10.0°C 24.1°F-4.4°C 36% 12.0 mph SW19.3 kmh SW 21.0 mph33.8 kmh 30.06 in1017.9 mb 0.00 in0.0 mm 0.00 in0.0 mm 0.00 in0.0 mm
01:35 PM 50.2°F10.1°C 25.6°F-3.6°C 38% 17.0 mph SW27.4 kmh SW 21.0 mph33.8 kmh 30.06 in1017.9 mb 0.00 in0.0 mm 0.00 in0.0 mm 0.00 in0.0 mm
01:40 PM 50.2°F10.1°C 22.9°F-5.1°C 34% 9.0 mph SSW14.5 kmh SSW 17.0 mph27.4 kmh 30.05 in1017.6 mb 0.00 in0.0 mm 0.00 in0.0 mm 0.00 in0.0 mm
01:45 PM 50.1°F10.1°C 24.9°F-3.9°C 37% 21.0 mph S33.8 kmh S 24.0 mph38.6 kmh 30.05 in1017.6 mb 0.00 in0.0 mm 0.00 in0.0 mm 0.00 in0.0 mm
01:50 PM 50.4°F10.2°C 24.5°F-4.2°C 36% 15.0 mph SW24.1 kmh SW 24.0 mph38.6 kmh 30.05 in1017.6 mb 0.00 in0.0 mm 0.00 in0.0 mm 0.00 in0.0 mm
01:55 PM 50.6°F10.3°C 24.0°F-4.4°C 35% 12.0 mph WSW19.3 kmh WSW 20.0 mph32.2 kmh 30.05 in1017.6 mb 0.00 in0.0 mm 0.00 in0.0 mm 0.00 in0.0 mm
02:00 PM 50.8°F10.4°C 24.2°F-4.3°C 35% 10.0 mph SSW16.1 kmh SSW 20.0 mph32.2 kmh 30.05 in1017.6 mb 0.00 in0.0 mm 0.00 in0.0 mm 0.00 in0.0 mm
02:05 PM 51.0°F10.6°C 25.7°F-3.5°C 37% 14.0 mph SW22.5 kmh SW 20.0 mph32.2 kmh 30.06 in1017.9 mb 0.00 in0.0 mm 0.00 in0.0 mm 0.00 in0.0 mm
02:10 PM 51.1°F10.6°C 24.4°F-4.2°C 35% 11.0 mph SW17.7 kmh SW 17.0 mph27.4 kmh 30.06 in1017.9 mb 0.00 in0.0 mm 0.00 in0.0 mm 0.00 in0.0 mm
02:15 PM 50.8°F10.4°C 23.5°F-4.7°C 34% 13.0 mph SW20.9 kmh SW 24.0 mph38.6 kmh 30.06 in1017.9 mb 0.00 in0.0 mm 0.00 in0.0 mm 0.00 in0.0 mm
02:20 PM 50.6°F10.3°C 22.6°F-5.2°C 33% 14.0 mph SW22.5 kmh SW 24.0 mph38.6 kmh 30.06 in1017.9 mb 0.00 in0.0 mm 0.00 in0.0 mm 0.00 in0.0 mm
02:25 PM 50.8°F10.4°C 22.0°F-5.6°C 32% 11.0 mph SW17.7 kmh SW 20.0 mph32.2 kmh 30.06 in1017.9 mb 0.00 in0.0 mm 0.00 in0.0 mm 0.00 in0.0 mm
02:30 PM 51.1°F10.6°C 23.0°F-5.0°C 33% 10.0 mph SW16.1 kmh SW 25.0 mph40.2 kmh 30.06 in1017.9 mb 0.00 in0.0 mm 0.00 in0.0 mm 0.00 in0.0 mm
02:35 PM 50.9°F10.5°C 22.8°F-5.1°C 33% 14.0 mph SW22.5 kmh SW 26.0 mph41.8 kmh 30.06 in1017.9 mb 0.00 in0.0 mm 0.00 in0.0 mm 0.00 in0.0 mm
02:40 PM 50.7°F10.4°C 23.4°F-4.8°C 34% 7.0 mph SW11.3 kmh SW 14.0 mph22.5 kmh 30.06 in1017.9 mb 0.00 in0.0 mm 0.00 in0.0 mm 0.00 in0.0 mm
02:45 PM 51.4°F10.8°C 25.4°F-3.7°C 36% 10.0 mph SW16.1 kmh SW 19.0 mph30.6 kmh 30.06 in1017.9 mb 0.00 in0.0 mm 0.00 in0.0 mm 0.00 in0.0 mm
02:50 PM 51.5°F10.8°C 24.1°F-4.4°C 34% 11.0 mph SSW17.7 kmh SSW 27.0 mph43.5 kmh 30.06 in1017.9 mb 0.00 in0.0 mm 0.00 in0.0 mm 0.00 in0.0 mm
02:55 PM 51.4°F10.8°C 24.0°F-4.4°C 34% 16.0 mph S25.7 kmh S 16.0 mph25.7 kmh 30.06 in1017.9 mb 0.00 in0.0 mm 0.00 in0.0 mm 0.00 in0.0 mm
03:00 PM 51.7°F10.9°C 23.5°F-4.7°C 33% 16.0 mph SW25.7 kmh SW 20.0 mph32.2 kmh 30.06 in1017.9 mb 0.00 in0.0 mm 0.00 in0.0 mm 0.00 in0.0 mm
03:05 PM 52.2°F11.2°C 26.7°F-2.9°C 37% 8.0 mph WSW12.9 kmh WSW 20.0 mph32.2 kmh 30.06 in1017.9 mb 0.00 in0.0 mm 0.00 in0.0 mm 0.00 in0.0 mm
03:10 PM 52.1°F11.2°C 23.2°F-4.9°C 32% 11.0 mph SW17.7 kmh SW 21.0 mph33.8 kmh 30.07 in1018.3 mb 0.00 in0.0 mm 0.00 in0.0 mm 0.00 in0.0 mm
03:15 PM 52.1°F11.2°C 23.2°F-4.9°C 32% 9.0 mph SW14.5 kmh SW 21.0 mph33.8 kmh 30.06 in1017.9 mb 0.00 in0.0 mm 0.00 in0.0 mm 0.00 in0.0 mm
03:20 PM 51.9°F11.1°C 24.4°F-4.2°C 34% 16.0 mph SSW25.7 kmh SSW 21.0 mph33.8 kmh 30.07 in1018.3 mb 0.00 in0.0 mm 0.00 in0.0 mm 0.00 in0.0 mm
03:25 PM 51.5°F10.8°C 23.4°F-4.8°C 33% 17.0 mph SW27.4 kmh SW 20.0 mph32.2 kmh 30.07 in1018.3 mb 0.00 in0.0 mm 0.00 in0.0 mm 0.00 in0.0 mm
03:30 PM 51.2°F10.7°C 23.1°F-4.9°C 33% 17.0 mph SW27.4 kmh SW 23.0 mph37.0 kmh 30.07 in1018.3 mb 0.00 in0.0 mm 0.00 in0.0 mm 0.00 in0.0 mm
03:35 PM 51.3°F10.7°C 23.9°F-4.5°C 34% 6.0 mph SW9.7 kmh SW 23.0 mph37.0 kmh 30.07 in1018.3 mb 0.00 in0.0 mm 0.00 in0.0 mm 0.00 in0.0 mm
03:40 PM 51.5°F10.8°C 24.8°F-4.0°C 35% 14.0 mph SW22.5 kmh SW 18.0 mph29.0 kmh 30.07 in1018.3 mb 0.00 in0.0 mm 0.00 in0.0 mm 0.00 in0.0 mm
03:45 PM 51.5°F10.8°C 22.6°F-5.2°C 32% 16.0 mph SW25.7 kmh SW 20.0 mph32.2 kmh 30.07 in1018.3 mb 0.00 in0.0 mm 0.00 in0.0 mm 0.00 in0.0 mm
03:50 PM 51.5°F10.8°C 23.4°F-4.8°C 33% 16.0 mph SSW25.7 kmh SSW 20.0 mph32.2 kmh 30.07 in1018.3 mb 0.00 in0.0 mm 0.00 in0.0 mm 0.00 in0.0 mm
03:55 PM 51.7°F10.9°C 23.5°F-4.7°C 33% 12.0 mph SSW19.3 kmh SSW 21.0 mph33.8 kmh 30.07 in1018.3 mb 0.00 in0.0 mm 0.00 in0.0 mm 0.00 in0.0 mm
04:00 PM 52.0°F11.1°C 24.5°F-4.2°C 34% 11.0 mph SW17.7 kmh SW 21.0 mph33.8 kmh 30.07 in1018.3 mb 0.00 in0.0 mm 0.00 in0.0 mm 0.00 in0.0 mm
04:05 PM 52.2°F11.2°C 26.1°F-3.3°C 36% 7.0 mph SW11.3 kmh SW 21.0 mph33.8 kmh 30.07 in1018.3 mb 0.00 in0.0 mm 0.00 in0.0 mm 0.00 in0.0 mm
04:10 PM 52.0°F11.1°C 24.5°F-4.2°C 34% 7.0 mph SW11.3 kmh SW 15.0 mph24.1 kmh 30.07 in1018.3 mb 0.00 in0.0 mm 0.00 in0.0 mm 0.00 in0.0 mm
04:15 PM 52.0°F11.1°C 23.8°F-4.6°C 33% 11.0 mph SW17.7 kmh SW 19.0 mph30.6 kmh 30.07 in1018.3 mb 0.00 in0.0 mm 0.00 in0.0 mm 0.00 in0.0 mm
04:20 PM 52.0°F11.1°C 24.5°F-4.2°C 34% 13.0 mph SW20.9 kmh SW 19.0 mph30.6 kmh 30.07 in1018.3 mb 0.00 in0.0 mm 0.00 in0.0 mm 0.00 in0.0 mm
04:25 PM 52.1°F11.2°C 24.6°F-4.1°C 34% 10.0 mph SW16.1 kmh SW 12.0 mph19.3 kmh 30.08 in1018.6 mb 0.00 in0.0 mm 0.00 in0.0 mm 0.00 in0.0 mm
04:30 PM 52.2°F11.2°C 24.0°F-4.4°C 33% 11.0 mph SW17.7 kmh SW 18.0 mph29.0 kmh 30.08 in1018.6 mb 0.00 in0.0 mm 0.00 in0.0 mm 0.00 in0.0 mm
04:35 PM 52.1°F11.2°C 23.9°F-4.5°C 33% 7.0 mph SW11.3 kmh SW 18.0 mph29.0 kmh 30.08 in1018.6 mb 0.00 in0.0 mm 0.00 in0.0 mm 0.00 in0.0 mm
04:40 PM 52.1°F11.2°C 25.3°F-3.7°C 35% 4.0 mph SSW6.4 kmh SSW 10.0 mph16.1 kmh 30.08 in1018.6 mb 0.00 in0.0 mm 0.00 in0.0 mm 0.00 in0.0 mm
04:45 PM 52.1°F11.2°C 23.9°F-4.5°C 33% 9.0 mph WSW14.5 kmh WSW 18.0 mph29.0 kmh 30.08 in1018.6 mb 0.00 in0.0 mm 0.00 in0.0 mm 0.00 in0.0 mm
04:50 PM 52.0°F11.1°C 25.9°F-3.4°C 36% 13.0 mph SSW20.9 kmh SSW 18.0 mph29.0 kmh 30.08 in1018.6 mb 0.00 in0.0 mm 0.00 in0.0 mm 0.00 in0.0 mm
04:55 PM 51.9°F11.1°C 23.0°F-5.0°C 32% 9.0 mph SW14.5 kmh SW 19.0 mph30.6 kmh 30.09 in1019.0 mb 0.00 in0.0 mm 0.00 in0.0 mm 0.00 in0.0 mm
05:00 PM 51.9°F11.1°C 23.0°F-5.0°C 32% 14.0 mph SSW22.5 kmh SSW 22.0 mph35.4 kmh 30.09 in1019.0 mb 0.00 in0.0 mm 0.00 in0.0 mm 0.00 in0.0 mm
05:05 PM 52.0°F11.1°C 23.8°F-4.6°C 33% 9.0 mph SSW14.5 kmh SSW 22.0 mph35.4 kmh 30.09 in1019.0 mb 0.00 in0.0 mm 0.00 in0.0 mm 0.00 in0.0 mm
05:10 PM 52.0°F11.1°C 23.1°F-4.9°C 32% 15.0 mph WSW24.1 kmh WSW 18.0 mph29.0 kmh 30.09 in1019.0 mb 0.00 in0.0 mm 0.00 in0.0 mm 0.00 in0.0 mm
05:15 PM 52.0°F11.1°C 23.8°F-4.6°C 33% 13.0 mph SW20.9 kmh SW 19.0 mph30.6 kmh 30.09 in1019.0 mb 0.00 in0.0 mm 0.00 in0.0 mm 0.00 in0.0 mm
05:20 PM 52.0°F11.1°C 23.1°F-4.9°C 32% 12.0 mph SW19.3 kmh SW 19.0 mph30.6 kmh 30.10 in1019.3 mb 0.00 in0.0 mm 0.00 in0.0 mm 0.00 in0.0 mm
05:25 PM 52.0°F11.1°C 25.9°F-3.4°C 36% 10.0 mph SSW16.1 kmh SSW 14.0 mph22.5 kmh 30.10 in1019.3 mb 0.00 in0.0 mm 0.00 in0.0 mm 0.00 in0.0 mm
05:30 PM 51.9°F11.1°C 24.4°F-4.2°C 34% 11.0 mph SW17.7 kmh SW 19.0 mph30.6 kmh 30.10 in1019.3 mb 0.00 in0.0 mm 0.00 in0.0 mm 0.00 in0.0 mm
05:35 PM 51.9°F11.1°C 24.4°F-4.2°C 34% 17.0 mph SW27.4 kmh SW 22.0 mph35.4 kmh 30.10 in1019.3 mb 0.00 in0.0 mm 0.00 in0.0 mm 0.00 in0.0 mm
05:40 PM 51.8°F11.0°C 24.3°F-4.3°C 34% 6.0 mph SW9.7 kmh SW 12.0 mph19.3 kmh 30.10 in1019.3 mb 0.00 in0.0 mm 0.00 in0.0 mm 0.00 in0.0 mm
05:45 PM 51.7°F10.9°C 23.5°F-4.7°C 33% 15.0 mph SW24.1 kmh SW 16.0 mph25.7 kmh 30.10 in1019.3 mb 0.00 in0.0 mm 0.00 in0.0 mm 0.00 in0.0 mm
05:50 PM 51.6°F10.9°C 24.2°F-4.3°C 34% 6.0 mph SSW9.7 kmh SSW 17.0 mph27.4 kmh 30.11 in1019.6 mb 0.00 in0.0 mm 0.00 in0.0 mm 0.00 in0.0 mm
05:55 PM 51.5°F10.8°C 23.4°F-4.8°C 33% 8.0 mph SW12.9 kmh SW 11.0 mph17.7 kmh 30.11 in1019.6 mb 0.00 in0.0 mm 0.00 in0.0 mm 0.00 in0.0 mm
06:00 PM 51.4°F10.8°C 24.0°F-4.4°C 34% 9.0 mph S14.5 kmh S 12.0 mph19.3 kmh 30.11 in1019.6 mb 0.00 in0.0 mm 0.00 in0.0 mm 0.00 in0.0 mm
06:05 PM 51.3°F10.7°C 23.2°F-4.9°C 33% 11.0 mph SW17.7 kmh SW 13.0 mph20.9 kmh 30.11 in1019.6 mb 0.00 in0.0 mm 0.00 in0.0 mm 0.00 in0.0 mm
06:10 PM 51.2°F10.7°C 24.5°F-4.2°C 35% 5.0 mph SW8.0 kmh SW 10.0 mph16.1 kmh 30.11 in1019.6 mb 0.00 in0.0 mm 0.00 in0.0 mm 0.00 in0.0 mm
06:15 PM 51.1°F10.6°C 24.4°F-4.2°C 35% 10.0 mph SSW16.1 kmh SSW 12.0 mph19.3 kmh 30.12 in1020.0 mb 0.00 in0.0 mm 0.00 in0.0 mm 0.00 in0.0 mm
06:20 PM 51.0°F10.6°C 23.6°F-4.7°C 34% 13.0 mph SW20.9 kmh SW 19.0 mph30.6 kmh 30.12 in1020.0 mb 0.00 in0.0 mm 0.00 in0.0 mm 0.00 in0.0 mm
06:25 PM 50.9°F10.5°C 24.9°F-3.9°C 36% 7.0 mph SW11.3 kmh SW 13.0 mph20.9 kmh 30.12 in1020.0 mb 0.00 in0.0 mm 0.00 in0.0 mm 0.00 in0.0 mm
06:30 PM 50.7°F10.4°C 24.1°F-4.4°C 35% 5.0 mph SW8.0 kmh SW 14.0 mph22.5 kmh 30.12 in1020.0 mb 0.00 in0.0 mm 0.00 in0.0 mm 0.00 in0.0 mm
06:35 PM 50.6°F10.3°C 24.7°F-4.1°C 36% 7.0 mph SW11.3 kmh SW 14.0 mph22.5 kmh 30.12 in1020.0 mb 0.00 in0.0 mm 0.00 in0.0 mm 0.00 in0.0 mm
06:40 PM 50.5°F10.3°C 25.2°F-3.8°C 37% 8.0 mph SSW12.9 kmh SSW 9.0 mph14.5 kmh 30.13 in1020.3 mb 0.00 in0.0 mm 0.00 in0.0 mm 0.00 in0.0 mm
06:45 PM 50.4°F10.2°C 25.1°F-3.8°C 37% 5.0 mph SW8.0 kmh SW 14.0 mph22.5 kmh 30.13 in1020.3 mb 0.00 in0.0 mm 0.00 in0.0 mm 0.00 in0.0 mm
06:50 PM 50.3°F10.2°C 25.0°F-3.9°C 37% 5.0 mph SW8.0 kmh SW 14.0 mph22.5 kmh 30.14 in1020.7 mb 0.00 in0.0 mm 0.00 in0.0 mm 0.00 in0.0 mm
06:55 PM 50.1°F10.1°C 24.9°F-3.9°C 37% 7.0 mph SW11.3 kmh SW 11.0 mph17.7 kmh 30.14 in1020.7 mb 0.00 in0.0 mm 0.00 in0.0 mm 0.00 in0.0 mm
07:00 PM 50.0°F10.0°C 24.8°F-4.0°C 37% 4.0 mph SW6.4 kmh SW 12.0 mph19.3 kmh 30.15 in1021.0 mb 0.00 in0.0 mm 0.00 in0.0 mm 0.00 in0.0 mm
07:05 PM 49.9°F9.9°C 26.0°F-3.3°C 39% 9.0 mph SW14.5 kmh SW 12.0 mph19.3 kmh 30.15 in1021.0 mb 0.00 in0.0 mm 0.00 in0.0 mm 0.00 in0.0 mm
07:10 PM 49.7°F9.8°C 25.1°F-3.8°C 38% 10.0 mph SW16.1 kmh SW 10.0 mph16.1 kmh 30.15 in1021.0 mb 0.00 in0.0 mm 0.00 in0.0 mm 0.00 in0.0 mm
07:15 PM 49.7°F9.8°C 23.2°F-4.9°C 35% 8.0 mph SW12.9 kmh SW 14.0 mph22.5 kmh 30.15 in1021.0 mb 0.00 in0.0 mm 0.00 in0.0 mm 0.00 in0.0 mm
07:20 PM 49.7°F9.8°C 23.9°F-4.5°C 36% 6.0 mph SW9.7 kmh SW 16.0 mph25.7 kmh 30.15 in1021.0 mb 0.00 in0.0 mm 0.00 in0.0 mm 0.00 in0.0 mm
07:25 PM 49.6°F9.8°C 23.1°F-4.9°C 35% 8.0 mph SW12.9 kmh SW 11.0 mph17.7 kmh 30.15 in1021.0 mb 0.00 in0.0 mm 0.00 in0.0 mm 0.00 in0.0 mm
07:30 PM 49.6°F9.8°C 22.4°F-5.3°C 34% 6.0 mph SW9.7 kmh SW 11.0 mph17.7 kmh 30.15 in1021.0 mb 0.00 in0.0 mm 0.00 in0.0 mm 0.00 in0.0 mm
07:35 PM 49.6°F9.8°C 22.4°F-5.3°C 34% 4.0 mph SW6.4 kmh SW 12.0 mph19.3 kmh 30.15 in1021.0 mb 0.00 in0.0 mm 0.00 in0.0 mm 0.00 in0.0 mm
07:40 PM 49.5°F9.7°C 23.0°F-5.0°C 35% 4.0 mph SW6.4 kmh SW 8.0 mph12.9 kmh 30.16 in1021.3 mb 0.00 in0.0 mm 0.00 in0.0 mm 0.00 in0.0 mm
07:45 PM 49.5°F9.7°C 23.7°F-4.6°C 36% 8.0 mph SW12.9 kmh SW 10.0 mph16.1 kmh 30.16 in1021.3 mb 0.00 in0.0 mm 0.00 in0.0 mm 0.00 in0.0 mm
07:50 PM 49.4°F9.7°C 23.6°F-4.7°C 36% 7.0 mph SW11.3 kmh SW 12.0 mph19.3 kmh 30.16 in1021.3 mb 0.00 in0.0 mm 0.00 in0.0 mm 0.00 in0.0 mm
07:55 PM 49.3°F9.6°C 24.2°F-4.3°C 37% 4.0 mph SW6.4 kmh SW 9.0 mph14.5 kmh 30.16 in1021.3 mb 0.00 in0.0 mm 0.00 in0.0 mm 0.00 in0.0 mm
08:00 PM 49.3°F9.6°C 25.4°F-3.7°C 39% 3.0 mph SW4.8 kmh SW 9.0 mph14.5 kmh 30.17 in1021.7 mb 0.00 in0.0 mm 0.00 in0.0 mm 0.00 in0.0 mm
08:05 PM 49.1°F9.5°C 25.2°F-3.8°C 39% 7.0 mph SSW11.3 kmh SSW 10.0 mph16.1 kmh 30.17 in1021.7 mb 0.00 in0.0 mm 0.00 in0.0 mm 0.00 in0.0 mm
08:10 PM 49.0°F9.4°C 25.1°F-3.8°C 39% 6.0 mph SW9.7 kmh SW 11.0 mph17.7 kmh 30.17 in1021.7 mb 0.00 in0.0 mm 0.00 in0.0 mm 0.00 in0.0 mm
08:15 PM 48.8°F9.3°C 26.2°F-3.2°C 41% 2.0 mph SW3.2 kmh SW 11.0 mph17.7 kmh 30.17 in1021.7 mb 0.00 in0.0 mm 0.00 in0.0 mm 0.00 in0.0 mm
08:20 PM 48.7°F9.3°C 26.7°F-2.9°C 42% 5.0 mph SW8.0 kmh SW 11.0 mph17.7 kmh 30.17 in1021.7 mb 0.00 in0.0 mm 0.00 in0.0 mm 0.00 in0.0 mm
08:25 PM 48.5°F9.2°C 25.3°F-3.7°C 40% 3.0 mph SW4.8 kmh SW 7.0 mph11.3 kmh 30.17 in1021.7 mb 0.00 in0.0 mm 0.00 in0.0 mm 0.00 in0.0 mm
08:30 PM 48.3°F9.1°C 27.4°F-2.6°C 44% 2.0 mph SW3.2 kmh SW 7.0 mph11.3 kmh 30.17 in1021.7 mb 0.00 in0.0 mm 0.00 in0.0 mm 0.00 in0.0 mm
08:35 PM 48.1°F8.9°C 26.7°F-2.9°C 43% 1.0 mph SW1.6 kmh SW 7.0 mph11.3 kmh 30.17 in1021.7 mb 0.00 in0.0 mm 0.00 in0.0 mm 0.00 in0.0 mm
08:40 PM 47.9°F8.8°C 27.1°F-2.7°C 44% 1.0 mph SW1.6 kmh SW 2.0 mph3.2 kmh 30.18 in1022.0 mb 0.00 in0.0 mm 0.00 in0.0 mm 0.00 in0.0 mm
08:45 PM 47.7°F8.7°C 27.4°F-2.6°C 45% 2.0 mph SW3.2 kmh SW 5.0 mph8.0 kmh 30.17 in1021.7 mb 0.00 in0.0 mm 0.00 in0.0 mm 0.00 in0.0 mm
08:50 PM 47.5°F8.6°C 27.2°F-2.7°C 45% 1.0 mph SW1.6 kmh SW 5.0 mph8.0 kmh 30.18 in1022.0 mb 0.00 in0.0 mm 0.00 in0.0 mm 0.00 in0.0 mm
08:55 PM 47.2°F8.4°C 27.0°F-2.8°C 45% Calm Calm 1.0 mph1.6 kmh 30.18 in1022.0 mb 0.00 in0.0 mm 0.00 in0.0 mm 0.00 in0.0 mm
09:00 PM 47.0°F8.3°C 26.2°F-3.2°C 44% Calm Calm 3.0 mph4.8 kmh 30.18 in1022.0 mb 0.00 in0.0 mm 0.00 in0.0 mm 0.00 in0.0 mm
09:05 PM 46.8°F8.2°C 28.7°F-1.8°C 49% Calm Calm 3.0 mph4.8 kmh 30.18 in1022.0 mb 0.00 in0.0 mm 0.00 in0.0 mm 0.00 in0.0 mm
09:10 PM 46.7°F8.2°C 29.6°F-1.3°C 51% Calm Calm -- 30.18 in1022.0 mb 0.00 in0.0 mm 0.00 in0.0 mm 0.00 in0.0 mm
09:15 PM 46.5°F8.1°C 31.7°F-0.2°C 56% Calm Calm -- 30.18 in1022.0 mb 0.00 in0.0 mm 0.00 in0.0 mm 0.00 in0.0 mm
09:20 PM 46.2°F7.9°C 30.9°F-0.6°C 55% Calm Calm -- 30.18 in1022.0 mb 0.00 in0.0 mm 0.00 in0.0 mm 0.00 in0.0 mm
09:25 PM 45.9°F7.7°C 28.3°F-2.1°C 50% Calm Calm -- 30.18 in1022.0 mb 0.00 in0.0 mm 0.00 in0.0 mm 0.00 in0.0 mm
09:30 PM 45.6°F7.6°C 28.5°F-1.9°C 51% Calm Calm -- 30.18 in1022.0 mb 0.00 in0.0 mm 0.00 in0.0 mm 0.00 in0.0 mm
09:35 PM 45.4°F7.4°C 29.3°F-1.5°C 53% Calm Calm -- 30.18 in1022.0 mb 0.00 in0.0 mm 0.00 in0.0 mm 0.00 in0.0 mm
09:40 PM 45.1°F7.3°C 26.1°F-3.3°C 47% Calm Calm -- 30.18 in1022.0 mb 0.00 in0.0 mm 0.00 in0.0 mm 0.00 in0.0 mm
09:45 PM 44.9°F7.2°C 28.4°F-2.0°C 52% Calm Calm -- 30.18 in1022.0 mb 0.00 in0.0 mm 0.00 in0.0 mm 0.00 in0.0 mm
09:50 PM 44.9°F7.2°C 30.6°F-0.8°C 57% Calm Calm -- 30.18 in1022.0 mb 0.00 in0.0 mm 0.00 in0.0 mm 0.00 in0.0 mm
09:55 PM 44.7°F7.1°C 30.4°F-0.9°C 57% Calm Calm -- 30.18 in1022.0 mb 0.00 in0.0 mm 0.00 in0.0 mm 0.00 in0.0 mm
10:00 PM 44.5°F6.9°C 30.7°F-0.7°C 58% Calm Calm -- 30.18 in1022.0 mb 0.00 in0.0 mm 0.00 in0.0 mm 0.00 in0.0 mm
10:05 PM 44.2°F6.8°C 29.5°F-1.4°C 56% Calm Calm -- 30.18 in1022.0 mb 0.00 in0.0 mm 0.00 in0.0 mm 0.00 in0.0 mm
10:10 PM 43.9°F6.6°C 28.8°F-1.8°C 55% 1.0 mph SW1.6 kmh SW 1.0 mph1.6 kmh 30.18 in1022.0 mb 0.00 in0.0 mm 0.00 in0.0 mm 0.00 in0.0 mm
10:15 PM 43.7°F6.5°C 30.7°F-0.7°C 60% Calm Calm 2.0 mph3.2 kmh 30.18 in1022.0 mb 0.00 in0.0 mm 0.00 in0.0 mm 0.00 in0.0 mm
10:20 PM 43.7°F6.5°C 33.9°F1.1°C 68% Calm Calm 2.0 mph3.2 kmh 30.18 in1022.0 mb 0.00 in0.0 mm 0.00 in0.0 mm 0.00 in0.0 mm
10:25 PM 43.4°F6.3°C 30.9°F-0.6°C 61% 2.0 mph SW3.2 kmh SW 3.0 mph4.8 kmh 30.19 in1022.4 mb 0.00 in0.0 mm 0.00 in0.0 mm 0.00 in0.0 mm
10:30 PM 43.4°F6.3°C 28.8°F-1.8°C 56% 2.0 mph SW3.2 kmh SW 4.0 mph6.4 kmh 30.19 in1022.4 mb 0.00 in0.0 mm 0.00 in0.0 mm 0.00 in0.0 mm
10:35 PM 43.4°F6.3°C 28.3°F-2.1°C 55% 2.0 mph SW3.2 kmh SW 4.0 mph6.4 kmh 30.19 in1022.4 mb 0.00 in0.0 mm 0.00 in0.0 mm 0.00 in0.0 mm
10:40 PM 43.6°F6.4°C 28.1°F-2.2°C 54% Calm Calm 1.0 mph1.6 kmh 30.18 in1022.0 mb 0.00 in0.0 mm 0.00 in0.0 mm 0.00 in0.0 mm
10:45 PM 43.7°F6.5°C 31.6°F-0.2°C 62% Calm Calm 1.0 mph1.6 kmh 30.19 in1022.4 mb 0.00 in0.0 mm 0.00 in0.0 mm 0.00 in0.0 mm
10:50 PM 43.7°F6.5°C 33.1°F0.6°C 66% Calm Calm 1.0 mph1.6 kmh 30.18 in1022.0 mb 0.00 in0.0 mm 0.00 in0.0 mm 0.00 in0.0 mm
10:55 PM 43.6°F6.4°C 34.5°F1.4°C 70% 1.0 mph SW1.6 kmh SW 3.0 mph4.8 kmh 30.18 in1022.0 mb 0.00 in0.0 mm 0.00 in0.0 mm 0.00 in0.0 mm
11:00 PM 43.3°F6.3°C 34.5°F1.4°C 71% 2.0 mph SW3.2 kmh SW 4.0 mph6.4 kmh 30.18 in1022.0 mb 0.00 in0.0 mm 0.00 in0.0 mm 0.00 in0.0 mm
11:05 PM 42.8°F6.0°C 34.1°F1.2°C 71% Calm Calm 4.0 mph6.4 kmh 30.19 in1022.4 mb 0.00 in0.0 mm 0.00 in0.0 mm 0.00 in0.0 mm
11:10 PM 42.3°F5.7°C 31.4°F-0.3°C 65% 2.0 mph SW3.2 kmh SW 4.0 mph6.4 kmh 30.19 in1022.4 mb 0.00 in0.0 mm 0.00 in0.0 mm 0.00 in0.0 mm
11:15 PM 42.3°F5.7°C 30.2°F-1.0°C 62% 4.0 mph SW6.4 kmh SW 4.0 mph6.4 kmh 30.19 in1022.4 mb 0.00 in0.0 mm 0.00 in0.0 mm 0.00 in0.0 mm
11:20 PM 42.4°F5.8°C 29.9°F-1.2°C 61% 1.0 mph SW1.6 kmh SW 4.0 mph6.4 kmh 30.19 in1022.4 mb 0.00 in0.0 mm 0.00 in0.0 mm 0.00 in0.0 mm
11:25 PM 42.7°F5.9°C 31.8°F-0.1°C 65% 1.0 mph SW1.6 kmh SW 1.0 mph1.6 kmh 30.19 in1022.4 mb 0.00 in0.0 mm 0.00 in0.0 mm 0.00 in0.0 mm
11:30 PM 42.7°F5.9°C 32.9°F0.5°C 68% Calm Calm 2.0 mph3.2 kmh 30.19 in1022.4 mb 0.00 in0.0 mm 0.00 in0.0 mm 0.00 in0.0 mm
11:35 PM 42.6°F5.9°C 33.5°F0.8°C 70% 1.0 mph SW1.6 kmh SW 3.0 mph4.8 kmh 30.19 in1022.4 mb 0.00 in0.0 mm 0.00 in0.0 mm 0.00 in0.0 mm
11:40 PM 42.3°F5.7°C 33.6°F0.9°C 71% Calm Calm 2.0 mph3.2 kmh 30.19 in1022.4 mb 0.00 in0.0 mm 0.00 in0.0 mm 0.00 in0.0 mm
11:45 PM 42.0°F5.6°C 33.3°F0.7°C 71% 1.0 mph SW1.6 kmh SW 2.0 mph3.2 kmh 30.19 in1022.4 mb 0.00 in0.0 mm 0.00 in0.0 mm 0.00 in0.0 mm
11:50 PM 41.7°F5.4°C 33.4°F0.8°C 72% Calm Calm 3.0 mph4.8 kmh 30.19 in1022.4 mb 0.00 in0.0 mm 0.00 in0.0 mm 0.00 in0.0 mm
11:55 PM 41.4°F5.2°C 33.4°F0.8°C 73% Calm Calm -- 30.19 in1022.4 mb 0.00 in0.0 mm 0.00 in0.0 mm 0.00 in0.0 mm